createdAt,value
2023-05-18T00:01:17.816Z,7.90
2023-05-18T00:03:44.982Z,7.80
2023-05-18T00:06:12.240Z,7.80
2023-05-18T00:08:39.258Z,7.80
2023-05-18T00:11:06.395Z,7.80
2023-05-18T00:13:33.487Z,7.80
2023-05-18T00:16:00.679Z,7.80
2023-05-18T00:18:28.202Z,7.80
2023-05-18T00:21:01.822Z,7.70
2023-05-18T00:23:33.007Z,7.70
2023-05-18T00:26:00.297Z,7.70
2023-05-18T00:28:27.310Z,7.70
2023-05-18T00:30:54.376Z,7.70
2023-05-18T00:33:21.592Z,7.70
2023-05-18T00:35:48.622Z,7.70
2023-05-18T00:38:15.781Z,7.70
2023-05-18T00:40:43.370Z,7.70
2023-05-18T00:43:11.859Z,7.70
2023-05-18T00:45:38.928Z,7.60
2023-05-18T00:48:06.483Z,7.60
2023-05-18T00:50:33.636Z,7.60
2023-05-18T00:53:00.755Z,7.60
2023-05-18T00:55:28.685Z,7.60
2023-05-18T00:57:59.041Z,7.60
2023-05-18T01:00:26.157Z,7.50
2023-05-18T01:02:53.393Z,7.60
2023-05-18T01:05:22.234Z,7.50
2023-05-18T01:07:50.345Z,7.50
2023-05-18T01:10:18.088Z,7.50
2023-05-18T01:12:49.563Z,7.50
2023-05-18T01:15:37.365Z,7.40
2023-05-18T01:18:14.940Z,7.40
2023-05-18T01:21:11.005Z,7.40
2023-05-18T01:23:52.165Z,7.30
2023-05-18T01:26:25.132Z,7.30
2023-05-18T01:28:52.482Z,7.30
2023-05-18T01:31:19.585Z,7.20
2023-05-18T01:33:46.623Z,7.20
2023-05-18T01:36:13.760Z,7.20
2023-05-18T01:38:43.240Z,7.10
2023-05-18T01:41:24.257Z,7.10
2023-05-18T01:44:12.319Z,7.10
2023-05-18T01:46:41.435Z,7.10
2023-05-18T01:49:14.050Z,7.10
2023-05-18T01:51:41.907Z,7.00
2023-05-18T01:54:09.361Z,7.00
2023-05-18T01:56:38.215Z,7.00
2023-05-18T01:59:05.295Z,7.00
2023-05-18T02:01:32.466Z,6.90
2023-05-18T02:03:59.726Z,6.90
2023-05-18T02:06:26.864Z,6.90
2023-05-18T02:08:53.920Z,6.80
2023-05-18T02:11:21.626Z,6.90
2023-05-18T02:13:48.819Z,6.80
2023-05-18T02:16:15.836Z,6.80
2023-05-18T02:18:43.222Z,6.80
2023-05-18T02:21:10.267Z,6.80
2023-05-18T02:23:37.281Z,6.80
2023-05-18T02:26:04.302Z,6.80
2023-05-18T02:28:31.419Z,6.80
2023-05-18T02:31:08.050Z,6.80
2023-05-18T02:33:42.380Z,6.70
2023-05-18T02:36:13.430Z,6.70
2023-05-18T02:38:42.469Z,6.70
2023-05-18T02:41:09.857Z,6.70
2023-05-18T02:43:36.877Z,6.70
2023-05-18T02:46:04.202Z,6.70
2023-05-18T02:48:33.633Z,6.60
2023-05-18T02:51:00.691Z,6.60
2023-05-18T02:53:27.783Z,6.60
2023-05-18T02:56:03.217Z,6.60
2023-05-18T02:58:38.599Z,6.60
2023-05-18T03:01:14.480Z,6.60
2023-05-18T03:03:48.080Z,6.60
2023-05-18T03:06:16.037Z,6.60
2023-05-18T03:08:43.913Z,6.60
2023-05-18T03:11:12.655Z,6.60
2023-05-18T03:13:39.700Z,6.60
2023-05-18T03:16:06.826Z,6.60
2023-05-18T03:18:34.064Z,6.60
2023-05-18T03:21:01.923Z,6.60
2023-05-18T03:23:30.129Z,6.50
2023-05-18T03:25:57.519Z,6.50
2023-05-18T03:28:28.463Z,6.50
2023-05-18T03:30:55.604Z,6.50
2023-05-18T03:33:22.840Z,6.50
2023-05-18T03:35:49.898Z,6.50
2023-05-18T03:38:16.993Z,6.50
2023-05-18T03:40:49.051Z,6.50
2023-05-18T03:43:16.113Z,6.50
2023-05-18T03:45:44.333Z,6.50
2023-05-18T03:48:11.451Z,6.40
2023-05-18T03:50:38.557Z,6.40
2023-05-18T03:53:06.045Z,6.40
2023-05-18T03:55:33.062Z,6.40
2023-05-18T03:58:00.688Z,6.40
2023-05-18T04:00:27.723Z,6.40
2023-05-18T04:02:54.927Z,6.40
2023-05-18T04:05:25.846Z,6.30
2023-05-18T04:07:52.846Z,6.30
2023-05-18T04:10:21.287Z,6.30
2023-05-18T04:12:48.347Z,6.30
2023-05-18T04:15:16.920Z,6.30
2023-05-18T04:17:45.835Z,6.30
2023-05-18T04:20:13.924Z,6.30
2023-05-18T04:22:46.469Z,6.30
2023-05-18T04:25:14.241Z,6.30
2023-05-18T04:27:42.015Z,6.30
2023-05-18T04:30:10.694Z,6.30
2023-05-18T04:32:42.589Z,6.30
2023-05-18T04:35:10.775Z,6.30
2023-05-18T04:37:40.301Z,6.30
2023-05-18T04:40:13.244Z,6.30
2023-05-18T04:42:47.724Z,6.40
2023-05-18T04:45:19.319Z,6.40
2023-05-18T04:47:47.460Z,6.40
2023-05-18T04:50:15.830Z,6.30
2023-05-18T04:52:47.916Z,6.40
2023-05-18T04:55:22.767Z,6.40
2023-05-18T04:57:50.953Z,6.40
2023-05-18T05:00:18.265Z,6.50
2023-05-18T05:02:45.593Z,6.60
2023-05-18T05:05:13.100Z,6.60
2023-05-18T05:07:40.246Z,6.70
2023-05-18T05:10:09.650Z,6.70
2023-05-18T05:12:37.277Z,6.80
2023-05-18T05:15:05.599Z,6.90
2023-05-18T05:17:32.818Z,7.00
2023-05-18T05:19:59.920Z,7.10
2023-05-18T05:22:27.032Z,7.30
2023-05-18T05:24:54.278Z,7.40
2023-05-18T05:27:22.621Z,7.50
2023-05-18T05:29:50.545Z,7.60
2023-05-18T05:32:17.590Z,7.70
2023-05-18T05:34:46.866Z,7.80
2023-05-18T05:37:14.544Z,7.90
2023-05-18T05:39:41.817Z,8.00
2023-05-18T05:42:09.335Z,8.10
2023-05-18T05:44:36.620Z,8.30
2023-05-18T05:47:03.989Z,8.30
2023-05-18T05:49:32.443Z,8.40
2023-05-18T05:51:59.586Z,8.60
2023-05-18T05:54:26.689Z,8.60
2023-05-18T05:56:54.398Z,8.70
2023-05-18T05:59:22.692Z,8.90
2023-05-18T06:01:49.739Z,8.90
2023-05-18T06:04:17.018Z,8.90
2023-05-18T06:06:47.702Z,9.00
2023-05-18T06:09:15.934Z,9.10
2023-05-18T06:11:43.095Z,9.20
2023-05-18T06:14:10.354Z,9.30
2023-05-18T06:16:37.769Z,9.40
2023-05-18T06:19:05.097Z,9.40
2023-05-18T06:21:32.482Z,9.40
2023-05-18T06:24:01.355Z,9.50
2023-05-18T06:26:28.437Z,9.50
2023-05-18T06:29:09.513Z,9.60
2023-05-18T06:31:55.442Z,9.70
2023-05-18T06:34:35.494Z,9.70
2023-05-18T06:37:02.517Z,9.80
2023-05-18T06:39:30.111Z,9.80
2023-05-18T06:41:57.158Z,9.90
2023-05-18T06:44:27.270Z,10.00
2023-05-18T06:47:10.759Z,10.10
2023-05-18T06:49:38.486Z,10.10
2023-05-18T06:52:05.665Z,10.10
2023-05-18T06:54:32.876Z,10.00
2023-05-18T06:57:00.553Z,10.00
2023-05-18T06:59:27.833Z,10.00
2023-05-18T07:01:54.983Z,10.00
2023-05-18T07:04:22.191Z,10.00
2023-05-18T07:06:49.190Z,10.00
2023-05-18T07:09:17.266Z,10.10
2023-05-18T07:11:45.439Z,10.10
2023-05-18T07:14:12.481Z,10.10
2023-05-18T07:16:39.604Z,10.20
2023-05-18T07:19:06.866Z,10.30
2023-05-18T07:21:34.379Z,10.40
2023-05-18T07:24:01.396Z,10.40
2023-05-18T07:26:28.453Z,10.50
2023-05-18T07:28:55.465Z,10.60
2023-05-18T07:31:22.710Z,10.70
2023-05-18T07:33:50.199Z,10.70
2023-05-18T07:36:17.281Z,10.70
2023-05-18T07:38:44.298Z,10.70
2023-05-18T07:41:11.308Z,10.80
2023-05-18T07:43:38.475Z,10.80
2023-05-18T07:46:05.602Z,10.90
2023-05-18T07:48:32.679Z,11.00
2023-05-18T07:50:59.707Z,11.10
2023-05-18T07:53:26.891Z,11.00
2023-05-18T07:55:54.052Z,11.00
2023-05-18T07:58:21.299Z,11.00
2023-05-18T08:00:48.371Z,11.10
2023-05-18T08:03:15.413Z,11.00
2023-05-18T08:05:42.738Z,11.10
2023-05-18T08:08:11.757Z,11.30
2023-05-18T08:10:38.867Z,11.30
2023-05-18T08:13:05.887Z,11.30
2023-05-18T08:15:33.184Z,11.30
2023-05-18T08:18:00.516Z,11.20
2023-05-18T08:20:30.097Z,11.10
2023-05-18T08:22:57.093Z,11.00
2023-05-18T08:25:24.797Z,10.90
2023-05-18T08:27:51.825Z,11.00
2023-05-18T08:30:21.447Z,11.30
2023-05-18T08:32:48.685Z,11.50
2023-05-18T08:35:15.707Z,11.60
2023-05-18T08:37:42.825Z,11.60
2023-05-18T08:40:11.427Z,11.50
2023-05-18T08:42:50.578Z,11.50
2023-05-18T08:45:22.519Z,11.50
2023-05-18T08:47:49.917Z,11.50
2023-05-18T08:50:18.000Z,11.60
2023-05-18T08:52:48.642Z,11.60
2023-05-18T08:55:17.612Z,11.70
2023-05-18T08:57:46.113Z,11.70
2023-05-18T09:00:13.384Z,11.80
2023-05-18T09:02:40.566Z,11.80
2023-05-18T09:05:08.238Z,11.80
2023-05-18T09:07:35.457Z,11.80
2023-05-18T09:10:02.605Z,11.80
2023-05-18T09:12:29.619Z,11.90
2023-05-18T09:14:56.652Z,12.00
2023-05-18T09:17:23.911Z,12.20
2023-05-18T09:19:51.182Z,12.30
2023-05-18T09:22:18.195Z,12.50
2023-05-18T09:24:45.425Z,12.60
2023-05-18T09:27:12.427Z,12.50
2023-05-18T09:29:51.217Z,12.50
2023-05-18T09:32:18.359Z,12.40
2023-05-18T09:34:46.046Z,12.30
2023-05-18T09:37:15.594Z,12.10
2023-05-18T09:39:42.605Z,12.00
2023-05-18T09:42:09.690Z,11.90
2023-05-18T09:44:36.940Z,12.00
2023-05-18T09:47:07.823Z,12.00
2023-05-18T09:49:34.908Z,12.10
2023-05-18T09:52:02.005Z,12.00
2023-05-18T09:54:29.025Z,12.00
2023-05-18T09:57:08.945Z,12.00
2023-05-18T09:59:37.160Z,12.20
2023-05-18T10:02:08.706Z,12.20
2023-05-18T10:04:39.752Z,12.20
2023-05-18T10:07:16.681Z,12.20
2023-05-18T10:09:44.285Z,12.20
2023-05-18T10:12:15.054Z,12.10
2023-05-18T10:14:42.924Z,12.10
2023-05-18T10:17:16.787Z,12.10
2023-05-18T10:19:44.628Z,12.20
2023-05-18T10:22:11.648Z,12.20
2023-05-18T10:24:39.034Z,12.10
2023-05-18T10:27:07.004Z,12.10
2023-05-18T10:29:34.072Z,12.20
2023-05-18T10:32:06.109Z,12.20
2023-05-18T10:34:34.783Z,12.20
2023-05-18T10:37:04.209Z,12.20
2023-05-18T10:39:36.024Z,12.20
2023-05-18T10:42:03.597Z,12.20
2023-05-18T10:44:30.739Z,12.20
2023-05-18T10:46:57.976Z,12.20
2023-05-18T10:49:26.044Z,12.20
2023-05-18T10:51:53.522Z,12.20
2023-05-18T10:54:20.568Z,12.20
2023-05-18T10:56:49.156Z,12.20
2023-05-18T10:59:16.176Z,12.20
2023-05-18T11:01:43.256Z,12.40
2023-05-18T11:04:10.535Z,12.40
2023-05-18T11:06:38.142Z,12.30
2023-05-18T11:09:05.780Z,12.30
2023-05-18T11:11:52.300Z,12.20
2023-05-18T11:14:29.160Z,12.20
2023-05-18T11:17:15.206Z,12.20
2023-05-18T11:20:01.228Z,12.20
2023-05-18T11:22:49.651Z,12.10
2023-05-18T11:25:32.102Z,12.10
2023-05-18T11:28:03.323Z,12.10
2023-05-18T11:30:33.684Z,12.10
2023-05-18T11:33:13.185Z,12.10
2023-05-18T11:35:58.588Z,12.10
2023-05-18T11:38:45.873Z,12.10
2023-05-18T11:41:29.282Z,12.10
2023-05-18T11:44:11.642Z,12.10
2023-05-18T11:46:51.192Z,12.10
2023-05-18T11:49:18.312Z,12.00
2023-05-18T11:51:59.102Z,12.00
2023-05-18T11:54:26.405Z,12.00
2023-05-18T11:56:53.521Z,12.10
2023-05-18T11:59:30.538Z,12.10
2023-05-18T12:02:01.664Z,12.10
2023-05-18T12:04:29.916Z,12.10
2023-05-18T12:06:57.215Z,12.10
2023-05-18T12:09:24.430Z,12.00
2023-05-18T12:11:51.491Z,12.00
2023-05-18T12:14:18.797Z,12.00
2023-05-18T12:16:46.141Z,12.10
2023-05-18T12:19:13.217Z,12.10
2023-05-18T12:21:40.731Z,12.20
2023-05-18T12:24:08.136Z,12.30
2023-05-18T12:26:35.173Z,12.60
2023-05-18T12:29:02.307Z,12.80
2023-05-18T12:31:30.084Z,12.90
2023-05-18T12:33:59.212Z,12.80
2023-05-18T12:36:27.306Z,12.70
2023-05-18T12:38:54.367Z,12.70
2023-05-18T12:41:22.510Z,12.60
2023-05-18T12:43:49.650Z,12.50
2023-05-18T12:46:16.715Z,12.70
2023-05-18T12:48:47.101Z,12.80
2023-05-18T12:51:17.747Z,13.10
2023-05-18T12:53:44.848Z,13.30
2023-05-18T12:56:12.707Z,13.30
2023-05-18T12:58:40.664Z,13.40
2023-05-18T13:01:08.880Z,13.60
2023-05-18T13:03:37.795Z,13.60
2023-05-18T13:06:08.186Z,13.50
2023-05-18T13:08:35.462Z,13.40
2023-05-18T13:11:12.912Z,13.30
2023-05-18T13:13:59.949Z,13.20
2023-05-18T13:16:27.246Z,13.10
2023-05-18T13:18:58.087Z,13.00
2023-05-18T13:21:25.193Z,13.00
2023-05-18T13:23:52.236Z,12.90
2023-05-18T13:26:21.774Z,12.80
2023-05-18T13:28:49.863Z,12.80
2023-05-18T13:31:16.969Z,12.70
2023-05-18T13:33:44.056Z,12.70
2023-05-18T13:36:11.637Z,12.60
2023-05-18T13:38:38.726Z,12.60
2023-05-18T13:41:05.857Z,12.60
2023-05-18T13:43:33.089Z,12.60
2023-05-18T13:46:00.463Z,12.60
2023-05-18T13:48:28.904Z,12.60
2023-05-18T13:50:56.403Z,12.70
2023-05-18T13:53:23.461Z,12.60
2023-05-18T13:55:50.652Z,12.60
2023-05-18T13:58:18.064Z,12.70
2023-05-18T14:00:46.515Z,12.70
2023-05-18T14:03:15.181Z,12.70
2023-05-18T14:05:42.471Z,12.80
2023-05-18T14:08:09.554Z,12.80
2023-05-18T14:10:36.615Z,12.90
2023-05-18T14:13:03.701Z,12.80
2023-05-18T14:15:30.877Z,12.80
2023-05-18T14:17:57.942Z,12.80
2023-05-18T14:20:25.007Z,12.80
2023-05-18T14:22:52.120Z,12.70
2023-05-18T14:25:19.167Z,12.70
2023-05-18T14:27:46.268Z,12.70
2023-05-18T14:30:13.620Z,12.60
2023-05-18T14:32:40.939Z,12.60
2023-05-18T14:35:08.289Z,12.60
2023-05-18T14:37:35.343Z,12.50
2023-05-18T14:40:02.363Z,12.50
2023-05-18T14:42:29.419Z,12.50
2023-05-18T14:44:56.479Z,12.50
2023-05-18T14:47:23.489Z,12.40
2023-05-18T14:49:50.663Z,12.50
2023-05-18T14:52:17.719Z,12.50
2023-05-18T14:54:44.890Z,12.50
2023-05-18T14:57:12.721Z,12.50
2023-05-18T14:59:39.729Z,12.40
2023-05-18T15:02:08.105Z,12.40
2023-05-18T15:04:36.018Z,12.40
2023-05-18T15:07:03.190Z,12.30
2023-05-18T15:09:30.204Z,12.30
2023-05-18T15:11:57.290Z,12.30
2023-05-18T15:14:24.325Z,12.20
2023-05-18T15:16:51.657Z,12.20
2023-05-18T15:19:19.137Z,12.20
2023-05-18T15:21:46.307Z,12.20
2023-05-18T15:24:13.392Z,12.20
2023-05-18T15:26:40.745Z,12.20
2023-05-18T15:29:07.792Z,12.20
2023-05-18T15:31:36.792Z,12.20
2023-05-18T15:34:03.842Z,12.20
2023-05-18T15:36:32.183Z,12.30
2023-05-18T15:38:59.404Z,12.30
2023-05-18T15:41:32.838Z,12.40
2023-05-18T15:44:00.946Z,12.40
2023-05-18T15:46:35.645Z,12.40
2023-05-18T15:49:02.777Z,12.40
2023-05-18T15:51:30.038Z,12.40
2023-05-18T15:53:57.240Z,12.30
2023-05-18T15:56:24.263Z,12.30
2023-05-18T15:58:51.310Z,12.30
2023-05-18T16:01:18.410Z,12.30
2023-05-18T16:03:45.896Z,12.30
2023-05-18T16:06:13.311Z,12.20
2023-05-18T16:08:40.324Z,12.20
2023-05-18T16:11:07.366Z,12.20
2023-05-18T16:13:34.437Z,12.10
2023-05-18T16:16:02.397Z,12.20
2023-05-18T16:18:29.526Z,12.20
2023-05-18T16:20:56.863Z,12.10
2023-05-18T16:23:23.910Z,12.20
2023-05-18T16:25:50.979Z,12.10
2023-05-18T16:28:18.162Z,12.10
2023-05-18T16:30:45.408Z,12.10
2023-05-18T16:33:12.509Z,12.10
2023-05-18T16:35:39.567Z,12.10
2023-05-18T16:38:07.235Z,12.10
2023-05-18T16:40:34.589Z,12.10
2023-05-18T16:43:01.733Z,12.10
2023-05-18T16:45:28.844Z,12.10
2023-05-18T16:47:56.240Z,12.10
2023-05-18T16:50:23.404Z,12.10
2023-05-18T16:52:50.414Z,12.10
2023-05-18T16:55:18.253Z,12.10
2023-05-18T16:57:45.326Z,12.10
2023-05-18T17:00:12.656Z,12.00
2023-05-18T17:02:40.030Z,12.10
2023-05-18T17:05:08.520Z,12.00
2023-05-18T17:07:35.701Z,12.00
2023-05-18T17:10:02.963Z,12.00
2023-05-18T17:12:30.071Z,12.00
2023-05-18T17:14:57.419Z,12.00
2023-05-18T17:17:24.518Z,12.00
2023-05-18T17:19:51.568Z,11.90
2023-05-18T17:22:18.628Z,11.90
2023-05-18T17:24:45.735Z,11.90
2023-05-18T17:27:12.807Z,11.90
2023-05-18T17:29:39.902Z,11.90
2023-05-18T17:32:07.023Z,11.90
2023-05-18T17:34:34.106Z,11.90
2023-05-18T17:37:01.141Z,11.90
2023-05-18T17:39:28.187Z,11.90
2023-05-18T17:41:55.304Z,11.80
2023-05-18T17:44:23.376Z,11.80
2023-05-18T17:46:50.935Z,11.80
2023-05-18T17:49:18.202Z,11.80
2023-05-18T17:51:45.720Z,11.80
2023-05-18T17:54:12.806Z,11.80
2023-05-18T17:56:40.026Z,11.80
2023-05-18T17:59:07.287Z,11.70
2023-05-18T18:01:34.516Z,11.70
2023-05-18T18:04:02.361Z,11.70
2023-05-18T18:06:29.878Z,11.70
2023-05-18T18:09:00.359Z,11.70
2023-05-18T18:11:27.665Z,11.70
2023-05-18T18:14:05.267Z,11.70
2023-05-18T18:16:43.733Z,11.70
2023-05-18T18:19:13.761Z,11.60
2023-05-18T18:21:44.305Z,11.60
2023-05-18T18:24:14.610Z,11.60
2023-05-18T18:26:41.875Z,11.60
2023-05-18T18:29:09.259Z,11.60
2023-05-18T18:31:36.655Z,11.60
2023-05-18T18:34:03.926Z,11.60
2023-05-18T18:36:31.682Z,11.60
2023-05-18T18:39:00.036Z,11.50
2023-05-18T18:41:27.362Z,11.50
2023-05-18T18:43:55.579Z,11.50
2023-05-18T18:46:23.160Z,11.50
2023-05-18T18:48:52.184Z,11.40
2023-05-18T18:51:20.151Z,11.40
2023-05-18T18:53:47.852Z,11.40
2023-05-18T18:56:24.201Z,11.40
2023-05-18T18:58:53.471Z,11.40
2023-05-18T19:01:20.970Z,11.40
2023-05-18T19:03:48.556Z,11.30
2023-05-18T19:06:17.600Z,11.30
2023-05-18T19:08:47.348Z,11.30
2023-05-18T19:11:14.860Z,11.20
2023-05-18T19:13:44.758Z,11.20
2023-05-18T19:16:17.534Z,11.20
2023-05-18T19:18:45.425Z,11.20
2023-05-18T19:21:12.980Z,11.20
2023-05-18T19:23:40.553Z,11.10
2023-05-18T19:26:08.865Z,11.10
2023-05-18T19:28:42.118Z,11.10
2023-05-18T19:31:10.287Z,11.10
2023-05-18T19:33:43.137Z,11.10
2023-05-18T19:36:13.824Z,11.10
2023-05-18T19:38:41.390Z,11.10
2023-05-18T19:41:12.325Z,11.00
2023-05-18T19:43:47.188Z,11.00
2023-05-18T19:46:23.444Z,11.00
2023-05-18T19:48:50.934Z,11.00
2023-05-18T19:51:20.932Z,11.00
2023-05-18T19:53:48.207Z,11.00
2023-05-18T19:56:15.383Z,11.00
2023-05-18T19:58:42.581Z,10.90
2023-05-18T20:01:12.884Z,10.90
2023-05-18T20:03:42.291Z,10.90
2023-05-18T20:06:11.205Z,10.90
2023-05-18T20:08:42.683Z,10.90
2023-05-18T20:11:18.785Z,10.80
2023-05-18T20:13:49.201Z,10.90
2023-05-18T20:16:19.065Z,10.80
2023-05-18T20:18:46.570Z,10.80
2023-05-18T20:21:14.134Z,10.80
2023-05-18T20:23:47.238Z,10.80
2023-05-18T20:26:14.725Z,10.80
2023-05-18T20:28:41.851Z,10.70
2023-05-18T20:31:11.588Z,10.70
2023-05-18T20:33:39.533Z,10.60
2023-05-18T20:36:09.042Z,10.70
2023-05-18T20:38:36.527Z,10.60
2023-05-18T20:41:04.108Z,10.60
2023-05-18T20:43:31.836Z,10.60
2023-05-18T20:45:59.052Z,10.60
2023-05-18T20:48:31.694Z,10.60
2023-05-18T20:51:06.269Z,10.60
2023-05-18T20:53:35.919Z,10.50
2023-05-18T20:56:05.381Z,10.50
2023-05-18T20:58:34.275Z,10.40
2023-05-18T21:01:06.963Z,10.40
2023-05-18T21:03:34.509Z,10.40
2023-05-18T21:06:05.052Z,10.40
2023-05-18T21:08:32.575Z,10.40
2023-05-18T21:10:59.701Z,10.40
2023-05-18T21:13:26.747Z,10.30
2023-05-18T21:15:53.797Z,10.30
2023-05-18T21:18:21.364Z,10.20
2023-05-18T21:20:48.487Z,10.20
2023-05-18T21:23:15.645Z,10.20
2023-05-18T21:25:42.958Z,10.20
2023-05-18T21:28:10.152Z,10.20
2023-05-18T21:30:37.331Z,10.20
2023-05-18T21:33:04.760Z,10.20
2023-05-18T21:35:32.090Z,10.20
2023-05-18T21:38:00.684Z,10.20
2023-05-18T21:40:31.142Z,10.20
2023-05-18T21:43:05.972Z,10.10
2023-05-18T21:45:36.072Z,10.20
2023-05-18T21:48:03.294Z,10.10
2023-05-18T21:50:36.671Z,10.10
2023-05-18T21:53:07.059Z,10.10
2023-05-18T21:55:34.867Z,10.10
2023-05-18T21:58:01.942Z,10.10
2023-05-18T22:00:29.920Z,10.00
2023-05-18T22:02:59.934Z,10.00
2023-05-18T22:05:27.212Z,10.00
2023-05-18T22:07:54.697Z,10.00
2023-05-18T22:10:21.817Z,10.00
2023-05-18T22:12:49.153Z,10.00
2023-05-18T22:15:17.147Z,10.00
2023-05-18T22:17:46.140Z,10.00
2023-05-18T22:20:13.389Z,9.90
2023-05-18T22:22:41.293Z,9.90
2023-05-18T22:25:09.067Z,9.90
2023-05-18T22:27:42.236Z,9.90
2023-05-18T22:30:09.746Z,9.90
2023-05-18T22:32:44.516Z,9.90
2023-05-18T22:35:11.931Z,9.90
2023-05-18T22:37:39.348Z,9.90
2023-05-18T22:40:06.945Z,9.80
2023-05-18T22:42:34.289Z,9.80
2023-05-18T22:45:02.407Z,9.80
2023-05-18T22:47:31.981Z,9.80
2023-05-18T22:50:01.303Z,9.70
2023-05-18T22:52:28.640Z,9.80
2023-05-18T22:55:00.371Z,9.80
2023-05-18T22:57:29.898Z,9.70
2023-05-18T23:00:06.210Z,9.70
2023-05-18T23:02:35.900Z,9.70
2023-05-18T23:05:04.973Z,9.70
2023-05-18T23:07:37.527Z,9.70
2023-05-18T23:10:08.704Z,9.70
2023-05-18T23:12:36.651Z,9.70
2023-05-18T23:15:04.506Z,9.70
2023-05-18T23:17:34.125Z,9.70
2023-05-18T23:20:06.597Z,9.70
2023-05-18T23:22:34.870Z,9.70
2023-05-18T23:25:04.422Z,9.60
2023-05-18T23:27:31.901Z,9.60
2023-05-18T23:29:59.190Z,9.60
2023-05-18T23:32:26.757Z,9.60
2023-05-18T23:34:56.035Z,9.60
2023-05-18T23:37:23.195Z,9.60
2023-05-18T23:39:50.355Z,9.60
2023-05-18T23:42:18.575Z,9.60
2023-05-18T23:44:46.272Z,9.60
2023-05-18T23:47:14.005Z,9.50
2023-05-18T23:49:41.159Z,9.50
2023-05-18T23:52:08.763Z,9.50
2023-05-18T23:54:37.415Z,9.50
2023-05-18T23:57:05.127Z,9.50
2023-05-18T23:59:32.685Z,9.50
